Time;durP1;ratioP1;P1;durP2;ratioP2;P2;SDS_P1;SDS_P2;PMS_P1;PMS_P2;Temp;Humidity;BMP_temperature;BMP_pressure;BME280_temperature;BME280_humidity;BME280_pressure;Samples;Min_cycle;Max_cycle;Signal;HPM_P1;HPM_P2
2022/01/02 00:01:11;;;;;;;0.90;0.30;;;;;;;;;;5034830;28;20113;-66
2022/01/02 00:03:38;;;;;;;0.52;0.20;;;;;;;;;;5034894;28;20533;-66
2022/01/02 00:06:03;;;;;;;0.50;0.13;;;;;;;;;;5034469;28;20049;-66
2022/01/02 00:08:31;;;;;;;0.77;0.32;;;;;;;;;;5034737;28;20025;-66
2022/01/02 00:10:59;;;;;;;0.20;0.10;;;;;;;;;;5034541;28;20033;-67
2022/01/02 00:13:29;;;;;;;0.77;0.30;;;;;;;;;;5034658;28;20076;-67
2022/01/02 00:16:06;;;;;;;1.55;0.20;;;;;;;;;;5016660;28;20013;-66
2022/01/02 00:18:37;;;;;;;1.00;0.30;;;;;;;;;;5034646;28;20032;-66
2022/01/02 00:21:07;;;;;;;0.52;0.25;;;;;;;;;;5016631;28;20122;-67
2022/01/02 00:23:41;;;;;;;0.90;0.25;;;;;;;;;;5016720;28;20022;-66
2022/01/02 00:26:15;;;;;;;0.17;0.10;;;;;;;;;;5014498;28;20014;-67
2022/01/02 00:28:41;;;;;;;0.35;0.17;;;;;;;;;;5013751;28;20026;-67
2022/01/02 00:31:06;;;;;;;0.32;0.22;;;;;;;;;;5014744;28;20021;-67
2022/01/02 00:33:31;;;;;;;0.52;0.20;;;;;;;;;;5014592;28;20028;-66
2022/01/02 00:35:56;;;;;;;0.40;0.20;;;;;;;;;;5014344;28;20569;-67
2022/01/02 00:38:22;;;;;;;0.35;0.15;;;;;;;;;;5014400;28;20021;-66
2022/01/02 00:40:49;;;;;;;1.70;0.30;;;;;;;;;;4996662;28;20543;-67
2022/01/02 00:43:19;;;;;;;0.32;0.10;;;;;;;;;;5014275;28;20433;-67
2022/01/02 00:45:45;;;;;;;0.47;0.10;;;;;;;;;;5014170;28;20350;-68
2022/01/02 00:48:12;;;;;;;1.63;0.13;;;;;;;;;;5014162;28;20121;-67
2022/01/02 00:50:38;;;;;;;0.57;0.10;;;;;;;;;;5014213;28;20025;-66
2022/01/02 00:53:05;;;;;;;0.50;0.20;;;;;;;;;;5014302;28;20022;-66
2022/01/02 00:55:32;;;;;;;0.22;0.10;;;;;;;;;;5014119;28;20116;-66
2022/01/02 00:57:59;;;;;;;0.20;0.10;;;;;;;;;;5013976;28;20022;-67
2022/01/02 01:00:24;;;;;;;1.17;0.10;;;;;;;;;;5014051;28;20097;-66
2022/01/02 01:02:49;;;;;;;0.73;0.10;;;;;;;;;;5013790;28;20057;-67
2022/01/02 01:05:35;;;;;;;0.22;0.10;;;;;;;;;;5013672;28;20054;-67
2022/01/02 01:08:01;;;;;;;0.50;0.10;;;;;;;;;;5013198;28;20037;-67
2022/01/02 01:10:29;;;;;;;0.75;0.30;;;;;;;;;;4996181;28;20041;-66
2022/01/02 01:12:55;;;;;;;0.10;0.03;;;;;;;;;;4996038;28;20018;-67
2022/01/02 01:15:21;;;;;;;0.73;0.35;;;;;;;;;;5013691;28;20100;-67
2022/01/02 01:17:47;;;;;;;0.40;0.20;;;;;;;;;;4996041;28;20056;-67
2022/01/02 01:20:13;;;;;;;0.50;0.20;;;;;;;;;;5013515;28;20045;-67
2022/01/02 01:22:39;;;;;;;0.40;0.10;;;;;;;;;;5013485;28;20022;-66
2022/01/02 01:25:07;;;;;;;0.57;0.20;;;;;;;;;;5037629;28;20034;-66
2022/01/02 01:27:32;;;;;;;0.93;0.10;;;;;;;;;;5035207;28;20541;-67
2022/01/02 01:29:58;;;;;;;0.77;0.28;;;;;;;;;;5035210;28;20029;-67
2022/01/02 01:32:23;;;;;;;0.20;0.10;;;;;;;;;;5053068;28;20417;-67
2022/01/02 01:34:48;;;;;;;1.83;0.50;;;;;;;;;;5052880;28;20100;-66
2022/01/02 01:37:13;;;;;;;0.70;0.40;;;;;;;;;;5052892;28;20408;-67
2022/01/02 01:39:38;;;;;;;0.93;0.20;;;;;;;;;;5052992;28;20740;-66
2022/01/02 01:42:09;;;;;;;1.30;0.20;;;;;;;;;;5052841;28;20025;-67
2022/01/02 01:47:12;;;;;;;1.08;0.30;;;;;;;;;;5052927;28;20168;-66
2022/01/02 01:49:37;;;;;;;1.30;0.50;;;;;;;;;;5053174;28;20040;-67
2022/01/02 01:52:02;;;;;;;0.50;0.30;;;;;;;;;;5052628;28;20025;-66
2022/01/02 01:54:28;;;;;;;0.15;0.15;;;;;;;;;;5052666;28;20258;-66
2022/01/02 01:56:53;;;;;;;0.55;0.20;;;;;;;;;;5052699;28;20024;-66
2022/01/02 01:59:19;;;;;;;0.85;0.22;;;;;;;;;;5052854;28;20114;-67
2022/01/02 02:01:45;;;;;;;1.40;0.40;;;;;;;;;;5052595;28;20446;-67
2022/01/02 02:04:10;;;;;;;0.20;0.20;;;;;;;;;;5052307;28;20526;-67
2022/01/02 02:06:37;;;;;;;0.57;0.10;;;;;;;;;;5052428;28;20029;-67
2022/01/02 02:09:04;;;;;;;0.73;0.22;;;;;;;;;;5052833;28;20043;-67
2022/01/02 02:11:29;;;;;;;1.75;0.32;;;;;;;;;;5052398;28;20438;-68
2022/01/02 02:13:55;;;;;;;0.52;0.20;;;;;;;;;;5052314;28;20108;-67
2022/01/02 02:16:20;;;;;;;0.40;0.10;;;;;;;;;;5034552;28;20021;-67
2022/01/02 02:18:46;;;;;;;0.68;0.28;;;;;;;;;;5052222;28;20021;-67
2022/01/02 02:21:11;;;;;;;1.23;0.22;;;;;;;;;;5052170;28;20048;-66
2022/01/02 02:23:36;;;;;;;0.20;0.20;;;;;;;;;;5052203;28;20025;-67
2022/01/02 02:26:01;;;;;;;0.25;0.25;;;;;;;;;;5032244;28;20029;-67
2022/01/02 02:28:27;;;;;;;0.28;0.17;;;;;;;;;;5032371;28;20534;-66
2022/01/02 02:30:53;;;;;;;0.35;0.20;;;;;;;;;;5032060;28;20510;-67
2022/01/02 02:33:19;;;;;;;0.70;0.30;;;;;;;;;;5032218;28;20025;-66
2022/01/02 02:35:46;;;;;;;0.32;0.20;;;;;;;;;;5032160;28;20131;-66
2022/01/02 02:38:12;;;;;;;0.35;0.10;;;;;;;;;;5032280;28;20024;-67
2022/01/02 02:40:37;;;;;;;0.47;0.17;;;;;;;;;;5032178;28;20025;-67
2022/01/02 02:43:28;;;;;;;0.57;0.32;;;;;;;;;;5032041;28;20512;-67
2022/01/02 02:51:27;;;;;;;0.20;0.10;;;;;;;;;;5034276;28;20101;-67
2022/01/02 02:53:52;;;;;;;1.27;0.45;;;;;;;;;;5036029;28;20067;-67
2022/01/02 02:58:49;;;;;;;0.75;0.20;;;;;;;;;;5036206;28;20018;-67
2022/01/02 03:01:15;;;;;;;0.80;0.20;;;;;;;;;;5035985;28;20365;-66
2022/01/02 03:03:41;;;;;;;1.27;0.38;;;;;;;;;;5035967;28;20112;-66
2022/01/02 03:06:06;;;;;;;0.52;0.32;;;;;;;;;;5035811;28;20053;-66
2022/01/02 03:08:32;;;;;;;0.75;0.40;;;;;;;;;;5035863;28;20112;-66
2022/01/02 03:10:57;;;;;;;0.32;0.17;;;;;;;;;;5035642;28;20018;-66
2022/01/02 03:13:23;;;;;;;0.25;0.10;;;;;;;;;;5035715;28;20495;-67
2022/01/02 03:15:48;;;;;;;0.38;0.15;;;;;;;;;;5035717;28;20181;-66
2022/01/02 03:18:14;;;;;;;0.75;0.30;;;;;;;;;;5035693;28;20018;-66
2022/01/02 03:20:39;;;;;;;0.17;0.10;;;;;;;;;;5035589;28;20021;-67
2022/01/02 03:23:04;;;;;;;0.25;0.25;;;;;;;;;;5035790;28;20461;-66
2022/01/02 03:25:29;;;;;;;0.30;0.10;;;;;;;;;;5051131;28;20021;-66
2022/01/02 03:27:54;;;;;;;0.15;0.15;;;;;;;;;;5055251;28;20288;-66
2022/01/02 03:30:19;;;;;;;0.43;0.23;;;;;;;;;;5055458;28;20041;-66
2022/01/02 03:32:45;;;;;;;0.50;0.20;;;;;;;;;;5055589;28;20741;-66
2022/01/02 03:35:10;;;;;;;0.60;0.20;;;;;;;;;;5055177;28;20277;-67
2022/01/02 03:37:35;;;;;;;0.65;0.20;;;;;;;;;;5055340;28;20722;-67
2022/01/02 03:40:02;;;;;;;0.25;0.10;;;;;;;;;;5055403;28;20086;-67
2022/01/02 03:42:27;;;;;;;0.38;0.10;;;;;;;;;;5055222;28;20536;-67
2022/01/02 03:44:52;;;;;;;1.20;0.20;;;;;;;;;;5054916;28;20060;-66
2022/01/02 03:47:17;;;;;;;0.13;0.07;;;;;;;;;;5054972;28;20270;-67
2022/01/02 03:49:43;;;;;;;0.93;0.30;;;;;;;;;;5037119;28;20392;-66
2022/01/02 03:52:08;;;;;;;0.60;0.10;;;;;;;;;;5055012;28;20075;-67
2022/01/02 03:54:33;;;;;;;0.80;0.20;;;;;;;;;;5054989;28;20028;-67
2022/01/02 03:56:58;;;;;;;0.15;0.10;;;;;;;;;;5054781;28;20056;-67
2022/01/02 03:59:23;;;;;;;0.20;0.10;;;;;;;;;;5054873;28;20047;-66
2022/01/02 04:01:48;;;;;;;0.75;0.32;;;;;;;;;;5054173;28;20075;-67
2022/01/02 04:04:14;;;;;;;0.20;0.10;;;;;;;;;;5053999;28;20476;-67
2022/01/02 04:06:39;;;;;;;0.65;0.00;;;;;;;;;;5054667;28;20270;-67
2022/01/02 04:09:04;;;;;;;0.60;0.20;;;;;;;;;;5054876;28;20029;-68
2022/01/02 04:11:29;;;;;;;0.20;0.10;;;;;;;;;;5054645;28;20269;-67
2022/01/02 04:13:54;;;;;;;0.13;0.10;;;;;;;;;;5054498;28;20266;-67
2022/01/02 04:16:19;;;;;;;1.73;0.25;;;;;;;;;;5054683;28;20092;-67
2022/01/02 04:18:45;;;;;;;0.17;0.10;;;;;;;;;;5036527;28;20017;-67
2022/01/02 04:21:10;;;;;;;0.30;0.20;;;;;;;;;;5054648;28;20028;-67
2022/01/02 04:23:37;;;;;;;0.82;0.20;;;;;;;;;;5054472;28;20062;-68
2022/01/02 04:26:02;;;;;;;0.63;0.10;;;;;;;;;;5014603;28;20027;-66
2022/01/02 04:28:27;;;;;;;1.40;0.20;;;;;;;;;;5014559;28;20018;-67
2022/01/02 04:30:52;;;;;;;0.13;0.10;;;;;;;;;;5014383;28;20251;-67
2022/01/02 04:33:17;;;;;;;0.30;0.30;;;;;;;;;;5014482;28;20013;-67
2022/01/02 04:35:43;;;;;;;1.60;0.30;;;;;;;;;;5014436;28;20029;-66
2022/01/02 04:38:08;;;;;;;0.45;0.22;;;;;;;;;;5014418;28;20247;-66
2022/01/02 04:40:33;;;;;;;0.50;0.20;;;;;;;;;;5014410;28;20079;-67
2022/01/02 04:42:58;;;;;;;0.43;0.20;;;;;;;;;;5014209;28;20270;-67
2022/01/02 04:45:23;;;;;;;0.10;0.10;;;;;;;;;;5014189;28;20263;-66
2022/01/02 04:47:48;;;;;;;0.30;0.10;;;;;;;;;;5014175;28;20064;-66
2022/01/02 04:50:14;;;;;;;0.40;0.10;;;;;;;;;;5014183;28;20630;-66
2022/01/02 04:52:39;;;;;;;0.22;0.08;;;;;;;;;;5014165;28;20036;-66
2022/01/02 04:55:04;;;;;;;0.40;0.10;;;;;;;;;;5014646;28;20018;-66
2022/01/02 04:57:29;;;;;;;0.30;0.10;;;;;;;;;;5014069;28;20029;-66
2022/01/02 04:59:55;;;;;;;0.63;0.20;;;;;;;;;;5013923;28;20501;-66
2022/01/02 05:02:20;;;;;;;0.47;0.20;;;;;;;;;;4996737;28;20029;-66
2022/01/02 05:04:45;;;;;;;0.50;0.00;;;;;;;;;;5013628;28;20766;-66
2022/01/02 05:07:12;;;;;;;0.20;0.10;;;;;;;;;;5013741;28;20424;-66
2022/01/02 05:09:37;;;;;;;0.28;0.10;;;;;;;;;;5013993;28;20600;-67
2022/01/02 05:12:03;;;;;;;1.50;0.10;;;;;;;;;;5013701;28;20018;-66
2022/01/02 05:14:28;;;;;;;0.63;0.28;;;;;;;;;;5012193;28;20466;-66
2022/01/02 05:16:53;;;;;;;0.77;0.07;;;;;;;;;;5013514;28;20033;-66
2022/01/02 05:19:18;;;;;;;0.20;0.10;;;;;;;;;;5012421;28;20264;-66
2022/01/02 05:21:43;;;;;;;0.53;0.13;;;;;;;;;;5013567;28;20032;-66
2022/01/02 05:24:08;;;;;;;0.33;0.20;;;;;;;;;;5022496;28;20246;-66
2022/01/02 05:26:34;;;;;;;0.40;0.13;;;;;;;;;;5053129;28;20642;-65
2022/01/02 05:28:59;;;;;;;0.57;0.33;;;;;;;;;;5053092;28;20245;-65
2022/01/02 05:31:24;;;;;;;1.30;0.47;;;;;;;;;;5053130;28;20547;-66
2022/01/02 05:33:49;;;;;;;0.30;0.10;;;;;;;;;;5052988;28;20058;-66
2022/01/02 05:36:14;;;;;;;0.85;0.40;;;;;;;;;;5053039;28;20709;-65
2022/01/02 05:38:39;;;;;;;1.58;0.10;;;;;;;;;;5052944;28;20025;-65
2022/01/02 05:41:05;;;;;;;0.40;0.10;;;;;;;;;;5052856;28;20025;-66
2022/01/02 05:43:30;;;;;;;0.75;0.30;;;;;;;;;;5035014;28;20047;-65
2022/01/02 05:45:55;;;;;;;1.75;0.25;;;;;;;;;;5052802;28;20029;-66
2022/01/02 05:48:20;;;;;;;0.30;0.20;;;;;;;;;;5052786;28;20028;-66
2022/01/02 05:50:46;;;;;;;0.60;0.10;;;;;;;;;;5052691;28;20013;-65
2022/01/02 05:53:11;;;;;;;0.93;0.13;;;;;;;;;;5052613;28;20017;-66
2022/01/02 05:55:37;;;;;;;0.20;0.10;;;;;;;;;;5052813;28;20249;-65
2022/01/02 05:58:02;;;;;;;0.28;0.10;;;;;;;;;;5052577;28;20108;-66
2022/01/02 06:00:27;;;;;;;1.10;0.13;;;;;;;;;;5052689;28;20096;-65
2022/01/02 06:02:53;;;;;;;0.43;0.20;;;;;;;;;;5052338;28;20775;-66
2022/01/02 06:05:18;;;;;;;0.80;0.20;;;;;;;;;;5052313;28;20310;-66
2022/01/02 06:07:43;;;;;;;0.53;0.27;;;;;;;;;;5052412;28;20453;-66
2022/01/02 06:10:08;;;;;;;1.23;0.10;;;;;;;;;;5052459;28;20288;-66
2022/01/02 06:12:33;;;;;;;1.67;0.22;;;;;;;;;;5052412;28;20720;-66
2022/01/02 06:14:59;;;;;;;0.20;0.10;;;;;;;;;;5052576;28;20021;-66
2022/01/02 06:17:24;;;;;;;0.40;0.20;;;;;;;;;;5052346;28;20360;-66
2022/01/02 06:19:49;;;;;;;0.20;0.10;;;;;;;;;;5052234;28;20029;-66
2022/01/02 06:22:14;;;;;;;0.98;0.22;;;;;;;;;;5034462;28;20024;-66
2022/01/02 06:24:39;;;;;;;0.93;0.20;;;;;;;;;;5043408;28;20021;-66
2022/01/02 06:27:04;;;;;;;0.63;0.20;;;;;;;;;;5031659;28;20821;-66
2022/01/02 06:29:30;;;;;;;1.13;0.20;;;;;;;;;;5014931;28;20029;-66
2022/01/02 06:31:57;;;;;;;0.40;0.10;;;;;;;;;;5032174;28;20334;-66
2022/01/02 06:34:22;;;;;;;1.10;0.40;;;;;;;;;;5032279;28;20242;-66
2022/01/02 06:36:47;;;;;;;0.87;0.20;;;;;;;;;;5032126;28;20148;-66
2022/01/02 06:39:12;;;;;;;1.52;0.57;;;;;;;;;;5032173;28;20033;-66
2022/01/02 06:41:38;;;;;;;1.23;0.20;;;;;;;;;;5032307;28;20381;-66
2022/01/02 06:44:03;;;;;;;0.53;0.10;;;;;;;;;;5032101;28;20064;-66
2022/01/02 06:46:28;;;;;;;0.30;0.20;;;;;;;;;;5032150;28;20233;-66
2022/01/02 06:48:54;;;;;;;0.67;0.10;;;;;;;;;;5031929;28;20250;-66
2022/01/02 06:51:19;;;;;;;1.58;0.30;;;;;;;;;;5032105;28;20017;-66
2022/01/02 06:53:44;;;;;;;0.73;0.10;;;;;;;;;;5032081;28;20465;-66
2022/01/02 06:56:09;;;;;;;1.08;0.68;;;;;;;;;;5032351;28;20021;-66
2022/01/02 06:58:38;;;;;;;0.83;0.20;;;;;;;;;;5032019;28;20037;-66
2022/01/02 07:01:04;;;;;;;0.95;0.20;;;;;;;;;;5031936;28;20025;-66
2022/01/02 07:03:29;;;;;;;0.57;0.20;;;;;;;;;;5031887;28;20029;-65
2022/01/02 07:05:54;;;;;;;0.13;0.10;;;;;;;;;;5031666;28;20077;-65
2022/01/02 07:08:19;;;;;;;0.52;0.20;;;;;;;;;;5031877;28;20733;-66
2022/01/02 07:10:44;;;;;;;0.55;0.32;;;;;;;;;;5031824;28;20089;-66
2022/01/02 07:13:09;;;;;;;0.40;0.20;;;;;;;;;;5031812;28;20029;-66
2022/01/02 07:15:35;;;;;;;0.53;0.30;;;;;;;;;;5031992;28;20354;-66
2022/01/02 07:18:00;;;;;;;0.27;0.10;;;;;;;;;;5031718;28;20262;-65
2022/01/02 07:20:25;;;;;;;0.57;0.20;;;;;;;;;;5031852;28;20258;-65
2022/01/02 07:22:50;;;;;;;0.20;0.20;;;;;;;;;;5031638;28;20021;-65
2022/01/02 07:25:16;;;;;;;0.65;0.40;;;;;;;;;;5045491;28;20532;-66
2022/01/02 07:27:41;;;;;;;0.35;0.10;;;;;;;;;;5051617;28;20013;-65
2022/01/02 07:30:07;;;;;;;0.43;0.17;;;;;;;;;;5051593;28;20028;-65
2022/01/02 07:32:32;;;;;;;0.75;0.10;;;;;;;;;;5051602;28;20824;-65
2022/01/02 07:34:57;;;;;;;0.83;0.20;;;;;;;;;;5051480;28;20111;-65
2022/01/02 07:37:22;;;;;;;1.83;0.23;;;;;;;;;;5053370;28;20368;-65
2022/01/02 07:39:48;;;;;;;0.87;0.50;;;;;;;;;;5055540;28;20328;-65
2022/01/02 07:42:13;;;;;;;1.63;0.28;;;;;;;;;;5055524;28;20476;-66
2022/01/02 07:44:38;;;;;;;1.27;0.70;;;;;;;;;;5055149;28;20667;-66
2022/01/02 07:47:04;;;;;;;0.13;0.10;;;;;;;;;;5054984;28;20650;-66
2022/01/02 07:49:29;;;;;;;0.70;0.20;;;;;;;;;;5055066;28;20055;-66
2022/01/02 07:51:54;;;;;;;0.47;0.10;;;;;;;;;;5054964;28;20020;-66
2022/01/02 07:54:20;;;;;;;1.25;0.40;;;;;;;;;;5055260;28;20032;-66
2022/01/02 07:56:45;;;;;;;0.30;0.10;;;;;;;;;;5054831;28;20047;-66
2022/01/02 07:59:10;;;;;;;0.28;0.28;;;;;;;;;;5054847;28;20086;-65
2022/01/02 08:01:35;;;;;;;0.10;0.00;;;;;;;;;;5055016;28;20017;-66
2022/01/02 08:04:00;;;;;;;0.17;0.00;;;;;;;;;;5054523;28;20295;-65
2022/01/02 08:06:25;;;;;;;0.40;0.20;;;;;;;;;;5036833;28;20032;-65
2022/01/02 08:08:51;;;;;;;1.93;0.20;;;;;;;;;;5054799;28;20246;-66
2022/01/02 08:11:17;;;;;;;0.83;0.20;;;;;;;;;;5054675;28;20029;-66
2022/01/02 08:13:42;;;;;;;0.77;0.10;;;;;;;;;;5054910;28;20337;-66
2022/01/02 08:16:08;;;;;;;0.13;0.10;;;;;;;;;;5054587;28;20479;-66
2022/01/02 08:18:33;;;;;;;1.50;0.30;;;;;;;;;;5054538;28;20021;-67
2022/01/02 08:20:58;;;;;;;0.90;0.10;;;;;;;;;;5054330;28;20025;-66
2022/01/02 08:23:23;;;;;;;0.65;0.20;;;;;;;;;;5054747;28;20029;-66
2022/01/02 08:25:49;;;;;;;0.40;0.20;;;;;;;;;;5036090;28;20040;-66
2022/01/02 08:28:15;;;;;;;0.15;0.15;;;;;;;;;;5034333;28;20109;-66
2022/01/02 08:30:41;;;;;;;0.70;0.20;;;;;;;;;;5034643;28;20014;-66
2022/01/02 08:33:07;;;;;;;0.30;0.10;;;;;;;;;;5034238;28;20032;-66
2022/01/02 08:35:32;;;;;;;0.10;0.10;;;;;;;;;;5034369;28;20088;-66
2022/01/02 08:37:57;;;;;;;0.95;0.25;;;;;;;;;;5034194;28;20100;-66
2022/01/02 08:40:22;;;;;;;1.20;0.35;;;;;;;;;;5016520;28;20476;-66
2022/01/02 08:42:47;;;;;;;1.50;0.20;;;;;;;;;;5034070;28;20021;-66
2022/01/02 08:45:12;;;;;;;0.95;0.25;;;;;;;;;;5034287;28;20265;-66
2022/01/02 08:47:38;;;;;;;0.50;0.20;;;;;;;;;;5034075;28;20029;-66
2022/01/02 08:50:04;;;;;;;1.97;0.40;;;;;;;;;;5033289;28;20017;-66
2022/01/02 08:52:29;;;;;;;0.80;0.30;;;;;;;;;;5034342;28;20461;-66
2022/01/02 08:54:54;;;;;;;0.97;0.10;;;;;;;;;;5033698;28;20028;-66
2022/01/02 08:57:19;;;;;;;0.57;0.17;;;;;;;;;;5033866;28;20251;-66
2022/01/02 08:59:44;;;;;;;0.80;0.10;;;;;;;;;;5033831;28;20481;-66
2022/01/02 09:02:09;;;;;;;0.60;0.20;;;;;;;;;;5033791;28;20293;-65
2022/01/02 09:04:35;;;;;;;0.70;0.20;;;;;;;;;;5033587;28;20107;-66
2022/01/02 09:07:01;;;;;;;1.27;0.10;;;;;;;;;;5015639;28;20757;-65
2022/01/02 09:09:26;;;;;;;1.05;0.22;;;;;;;;;;5033627;28;20109;-66
2022/01/02 09:11:51;;;;;;;0.57;0.20;;;;;;;;;;5033491;28;20106;-65
2022/01/02 09:14:17;;;;;;;0.80;0.20;;;;;;;;;;5033626;28;20061;-66
2022/01/02 09:16:44;;;;;;;0.67;0.10;;;;;;;;;;5033446;28;20258;-65
2022/01/02 09:19:09;;;;;;;1.52;0.10;;;;;;;;;;5033445;28;20249;-66
2022/01/02 09:21:34;;;;;;;0.67;0.20;;;;;;;;;;5033502;28;20097;-65
2022/01/02 09:24:00;;;;;;;1.20;0.30;;;;;;;;;;5036650;28;20709;-66
2022/01/02 09:26:25;;;;;;;0.60;0.10;;;;;;;;;;5053266;28;20021;-66
2022/01/02 09:28:50;;;;;;;0.52;0.10;;;;;;;;;;5053086;28;20027;-66
2022/01/02 09:31:15;;;;;;;0.35;0.10;;;;;;;;;;5035051;28;20086;-66
2022/01/02 09:33:40;;;;;;;1.77;0.30;;;;;;;;;;5033313;28;20017;-66
2022/01/02 09:36:05;;;;;;;0.40;0.10;;;;;;;;;;5033102;28;20656;-66
2022/01/02 09:38:30;;;;;;;0.37;0.13;;;;;;;;;;5033236;28;20041;-67
2022/01/02 09:40:57;;;;;;;0.40;0.27;;;;;;;;;;5032920;28;20302;-66
2022/01/02 09:43:22;;;;;;;1.08;0.20;;;;;;;;;;5015304;28;20872;-66
2022/01/02 09:45:48;;;;;;;1.00;0.10;;;;;;;;;;5033029;28;20097;-65
2022/01/02 09:48:13;;;;;;;1.77;0.30;;;;;;;;;;5032853;28;20022;-67
2022/01/02 09:50:39;;;;;;;0.75;0.13;;;;;;;;;;5032977;28;20715;-66
2022/01/02 09:53:04;;;;;;;0.43;0.03;;;;;;;;;;5032778;28;20504;-66
2022/01/02 09:55:29;;;;;;;0.65;0.10;;;;;;;;;;5032846;28;20029;-67
2022/01/02 09:57:59;;;;;;;0.33;0.10;;;;;;;;;;5032718;28;20479;-67
2022/01/02 10:00:24;;;;;;;0.20;0.08;;;;;;;;;;5031893;28;20484;-66
2022/01/02 10:02:57;;;;;;;0.90;0.20;;;;;;;;;;5032589;28;20033;-66
2022/01/02 10:05:24;;;;;;;0.98;0.20;;;;;;;;;;5032349;28;20405;-66
2022/01/02 10:07:49;;;;;;;0.63;0.10;;;;;;;;;;5032557;28;20029;-65
2022/01/02 10:10:15;;;;;;;0.68;0.10;;;;;;;;;;5032595;28;20022;-65
2022/01/02 10:12:40;;;;;;;0.73;0.10;;;;;;;;;;5032587;28;20364;-66
2022/01/02 10:15:08;;;;;;;0.27;0.10;;;;;;;;;;5032449;28;20264;-66
2022/01/02 10:17:52;;;;;;;1.35;0.40;;;;;;;;;;5032631;28;20029;-65
2022/01/02 10:20:17;;;;;;;0.20;0.20;;;;;;;;;;5032829;28;20024;-66
2022/01/02 10:23:02;;;;;;;0.60;0.22;;;;;;;;;;5032327;28;20018;-66
2022/01/02 10:25:37;;;;;;;0.38;0.10;;;;;;;;;;5032343;28;20025;-66
2022/01/02 10:28:16;;;;;;;0.57;0.15;;;;;;;;;;5032200;28;20534;-66
2022/01/02 10:30:45;;;;;;;1.15;0.20;;;;;;;;;;5032577;28;20028;-66
2022/01/02 10:33:10;;;;;;;1.08;0.30;;;;;;;;;;5032085;28;20535;-66
2022/01/02 10:35:36;;;;;;;1.08;0.10;;;;;;;;;;5032379;28;20017;-66
2022/01/02 10:38:01;;;;;;;0.85;0.10;;;;;;;;;;5032087;28;20388;-67
2022/01/02 10:40:38;;;;;;;0.38;0.13;;;;;;;;;;5032363;28;20079;-64
2022/01/02 10:43:06;;;;;;;1.60;0.22;;;;;;;;;;5032222;28;20021;-65
2022/01/02 10:45:32;;;;;;;0.32;0.20;;;;;;;;;;5032465;28;20222;-64
2022/01/02 10:47:57;;;;;;;0.55;0.10;;;;;;;;;;5032028;28;20034;-65
2022/01/02 10:50:22;;;;;;;0.40;0.30;;;;;;;;;;5032238;28;20064;-64
2022/01/02 10:52:48;;;;;;;0.90;0.20;;;;;;;;;;5031993;28;20249;-64
2022/01/02 10:55:18;;;;;;;0.30;0.00;;;;;;;;;;5032068;28;20605;-65
2022/01/02 10:57:46;;;;;;;0.65;0.30;;;;;;;;;;5032078;28;20109;-65
2022/01/02 11:00:11;;;;;;;0.68;0.20;;;;;;;;;;5032036;28;20052;-64
2022/01/02 11:02:37;;;;;;;1.30;0.20;;;;;;;;;;5032007;28;20459;-64
2022/01/02 11:05:04;;;;;;;0.10;0.00;;;;;;;;;;5031824;28;20042;-64
2022/01/02 11:07:37;;;;;;;1.60;0.20;;;;;;;;;;5031951;28;20025;-63
2022/01/02 11:10:02;;;;;;;2.55;0.20;;;;;;;;;;5031893;28;20026;-64
2022/01/02 11:12:28;;;;;;;0.90;0.20;;;;;;;;;;5033975;28;20451;-64
2022/01/02 11:14:53;;;;;;;0.52;0.10;;;;;;;;;;5035670;28;20033;-63
2022/01/02 11:17:19;;;;;;;0.30;0.10;;;;;;;;;;5018002;28;20425;-64
2022/01/02 11:19:44;;;;;;;1.43;0.10;;;;;;;;;;5035687;28;20595;-64
2022/01/02 11:22:14;;;;;;;1.40;0.43;;;;;;;;;;5035701;28;20246;-64
2022/01/02 11:24:44;;;;;;;0.57;0.30;;;;;;;;;;5044262;28;20016;-64
2022/01/02 11:27:36;;;;;;;0.75;0.28;;;;;;;;;;5055433;28;20036;-65
2022/01/02 11:30:33;;;;;;;0.70;0.20;;;;;;;;;;5033549;28;20102;-65
2022/01/02 11:33:02;;;;;;;1.13;0.10;;;;;;;;;;5055120;28;20483;-64
2022/01/02 11:35:31;;;;;;;0.77;0.10;;;;;;;;;;5055365;28;20028;-65
2022/01/02 11:38:02;;;;;;;0.65;0.10;;;;;;;;;;5055280;28;20021;-64
2022/01/02 11:40:46;;;;;;;1.02;0.20;;;;;;;;;;5055405;28;20025;-64
2022/01/02 11:43:30;;;;;;;0.77;0.10;;;;;;;;;;5055209;28;20479;-64
2022/01/02 11:46:13;;;;;;;0.50;0.37;;;;;;;;;;5055104;28;20028;-65
2022/01/02 11:48:38;;;;;;;1.73;0.20;;;;;;;;;;5055152;28;20109;-64
2022/01/02 11:51:03;;;;;;;0.55;0.40;;;;;;;;;;5055077;28;20096;-64
2022/01/02 11:53:33;;;;;;;0.57;0.20;;;;;;;;;;5037162;28;20021;-64
2022/01/02 11:55:59;;;;;;;0.20;0.10;;;;;;;;;;5054914;28;20024;-65
2022/01/02 11:58:44;;;;;;;1.30;0.10;;;;;;;;;;5055056;28;20380;-64
2022/01/02 12:01:09;;;;;;;0.45;0.20;;;;;;;;;;5054950;28;20265;-65
2022/01/02 12:03:38;;;;;;;0.22;0.10;;;;;;;;;;5054920;28;20029;-65
2022/01/02 12:06:12;;;;;;;0.47;0.20;;;;;;;;;;5054623;28;20053;-64
2022/01/02 12:08:38;;;;;;;1.27;0.20;;;;;;;;;;5054718;28;20108;-63
2022/01/02 12:11:23;;;;;;;0.30;0.10;;;;;;;;;;5054640;28;20543;-64
2022/01/02 12:14:01;;;;;;;0.45;0.20;;;;;;;;;;5054415;28;20266;-65
2022/01/02 12:16:33;;;;;;;0.65;0.15;;;;;;;;;;5054680;28;20017;-63
2022/01/02 12:18:59;;;;;;;0.38;0.10;;;;;;;;;;5054485;28;20071;-64
2022/01/02 12:21:25;;;;;;;0.57;0.10;;;;;;;;;;5054521;28;20017;-64
2022/01/02 12:23:53;;;;;;;1.20;0.15;;;;;;;;;;5051418;28;20410;-64
2022/01/02 12:26:21;;;;;;;0.63;0.20;;;;;;;;;;5034701;28;20022;-64
2022/01/02 12:29:00;;;;;;;0.35;0.10;;;;;;;;;;5034574;28;20044;-64
2022/01/02 12:31:38;;;;;;;0.63;0.15;;;;;;;;;;5034439;28;20100;-64
2022/01/02 12:34:09;;;;;;;0.75;0.40;;;;;;;;;;5034390;28;20010;-65
2022/01/02 12:36:35;;;;;;;1.10;0.28;;;;;;;;;;5016591;28;20022;-64
2022/01/02 12:39:02;;;;;;;0.45;0.40;;;;;;;;;;5034199;28;20021;-65
2022/01/02 12:41:28;;;;;;;1.20;0.30;;;;;;;;;;5034338;28;20048;-65
2022/01/02 12:43:55;;;;;;;0.40;0.10;;;;;;;;;;5034169;28;20020;-64
2022/01/02 12:46:31;;;;;;;1.05;0.22;;;;;;;;;;5034276;28;20039;-64
2022/01/02 12:48:56;;;;;;;1.35;0.30;;;;;;;;;;5033979;28;20021;-65
2022/01/02 12:51:27;;;;;;;0.83;0.10;;;;;;;;;;5034107;28;20013;-65
2022/01/02 12:54:01;;;;;;;0.95;0.20;;;;;;;;;;5033930;28;20247;-63
2022/01/02 12:56:30;;;;;;;0.28;0.20;;;;;;;;;;5034095;28;20021;-64
2022/01/02 12:59:10;;;;;;;1.17;0.10;;;;;;;;;;5033707;28;20029;-64
2022/01/02 13:01:46;;;;;;;0.10;0.10;;;;;;;;;;5034050;28;20068;-65
2022/01/02 13:04:11;;;;;;;0.85;0.10;;;;;;;;;;5033640;28;20096;-65
2022/01/02 13:06:36;;;;;;;0.77;0.35;;;;;;;;;;5033768;28;20101;-65
2022/01/02 13:09:02;;;;;;;0.47;0.10;;;;;;;;;;5033642;28;20027;-65
2022/01/02 13:11:36;;;;;;;0.10;0.05;;;;;;;;;;5033664;28;20246;-65
2022/01/02 13:14:02;;;;;;;1.10;0.10;;;;;;;;;;5033612;28;20387;-64
2022/01/02 13:16:27;;;;;;;0.52;0.30;;;;;;;;;;5033613;28;20532;-65
2022/01/02 13:18:53;;;;;;;0.85;0.28;;;;;;;;;;5033327;28;20030;-65
2022/01/02 13:21:18;;;;;;;0.30;0.10;;;;;;;;;;5033444;28;20064;-65
2022/01/02 13:23:43;;;;;;;0.55;0.10;;;;;;;;;;5034300;28;20037;-66
2022/01/02 13:26:15;;;;;;;0.10;0.00;;;;;;;;;;5053373;28;20036;-65
2022/01/02 13:28:40;;;;;;;0.20;0.13;;;;;;;;;;5053137;28;20743;-65
2022/01/02 13:31:07;;;;;;;0.97;0.27;;;;;;;;;;5053193;28;20140;-65
2022/01/02 13:33:39;;;;;;;0.10;0.08;;;;;;;;;;5053257;28;20028;-65
2022/01/02 13:36:11;;;;;;;1.83;0.15;;;;;;;;;;5052912;28;20519;-64
2022/01/02 13:38:53;;;;;;;0.77;0.10;;;;;;;;;;5053140;28;20147;-64
2022/01/02 13:41:18;;;;;;;1.35;0.55;;;;;;;;;;5053063;28;20021;-64
2022/01/02 13:43:43;;;;;;;0.52;0.10;;;;;;;;;;5053020;28;20021;-65
2022/01/02 13:46:09;;;;;;;0.57;0.28;;;;;;;;;;5053009;28;20027;-65
2022/01/02 13:48:35;;;;;;;0.43;0.10;;;;;;;;;;5052896;28;20456;-65
2022/01/02 13:51:01;;;;;;;0.60;0.20;;;;;;;;;;5052743;28;20254;-64
2022/01/02 13:53:27;;;;;;;1.13;0.22;;;;;;;;;;5052843;28;20025;-64
2022/01/02 13:56:14;;;;;;;0.57;0.20;;;;;;;;;;5052677;28;20027;-64
2022/01/02 13:58:43;;;;;;;0.28;0.10;;;;;;;;;;5052761;28;20023;-64
2022/01/02 14:01:22;;;;;;;0.57;0.20;;;;;;;;;;5052930;28;20045;-65
2022/01/02 14:03:57;;;;;;;0.30;0.10;;;;;;;;;;5052445;28;20036;-64
2022/01/02 14:06:29;;;;;;;0.70;0.40;;;;;;;;;;5052674;28;20041;-65
2022/01/02 14:08:55;;;;;;;0.40;0.10;;;;;;;;;;5034302;28;20029;-65
2022/01/02 14:11:27;;;;;;;0.50;0.20;;;;;;;;;;5052501;28;20039;-65
2022/01/02 14:14:06;;;;;;;0.85;0.20;;;;;;;;;;5052335;28;20013;-65
2022/01/02 14:18:58;;;;;;;0.30;0.20;;;;;;;;;;5052544;28;20028;-65
2022/01/02 14:21:23;;;;;;;0.10;0.10;;;;;;;;;;5052351;28;20017;-65
2022/01/02 14:23:48;;;;;;;0.15;0.10;;;;;;;;;;5050989;28;20356;-65
2022/01/02 14:26:15;;;;;;;0.30;0.23;;;;;;;;;;5032404;28;20460;-65
2022/01/02 14:28:40;;;;;;;0.45;0.20;;;;;;;;;;5032290;28;20026;-65
2022/01/02 14:31:05;;;;;;;0.90;0.20;;;;;;;;;;5032358;28;20068;-64
2022/01/02 14:33:30;;;;;;;1.15;0.30;;;;;;;;;;5032306;28;20290;-65
2022/01/02 14:35:56;;;;;;;0.50;0.20;;;;;;;;;;5032237;28;20061;-65
2022/01/02 14:38:21;;;;;;;1.65;0.17;;;;;;;;;;5032627;28;20246;-64
2022/01/02 14:40:46;;;;;;;0.83;0.20;;;;;;;;;;5014472;28;20030;-63
2022/01/02 14:43:11;;;;;;;2.00;0.30;;;;;;;;;;5014370;28;20760;-64
2022/01/02 14:45:36;;;;;;;1.00;0.20;;;;;;;;;;5032308;28;20021;-64
2022/01/02 14:48:01;;;;;;;0.85;0.30;;;;;;;;;;5035151;28;20266;-64
2022/01/02 14:50:27;;;;;;;0.67;0.20;;;;;;;;;;5036421;28;20469;-64
2022/01/02 14:52:52;;;;;;;1.13;0.10;;;;;;;;;;5018419;28;20250;-63
2022/01/02 14:55:18;;;;;;;1.03;0.10;;;;;;;;;;5036232;28;20242;-64